WetterOnline ( http://www.wetteronline.de )

Wetter aktuell PLZ Bereich 55569

Aktuelles Wetter: Geisenheim (110m)

6-stündlich | Neueste Meldungen
Ortszeit Temperatur Wetter
Do, 21.06. 8:00 19.5° C wolkenlos
Do, 21.06. 2:00 18.2° C wolkenlos
Mi, 20.06. 20:00 28.8° C wolkenlos
Mi, 20.06. 14:00 26.5° C wolkenlos
Mi, 20.06. 8:00 19.9° C bewölkt
Mi, 20.06. 2:00 18.1° C bedeckt
Di, 19.06. 20:00 22.4° C leicht bewölkt
Di, 19.06. 14:00 22.0° C bedeckt
Ortszeit Temperatur Wetter
Do, 21.06. 10:00 22.8° C wolkig
Do, 21.06. 9:50 22.8° C wolkig
Do, 21.06. 9:40 22.9° C wolkig
Do, 21.06. 9:30 22.1° C wolkig
Do, 21.06. 9:20 22.1° C wolkig
Do, 21.06. 9:10 21.5° C wolkig
Do, 21.06. 9:00 21.5° C wolkig
Do, 21.06. 8:30 20.8° C leicht bewölkt
Do, 21.06. 8:00 19.5° C wolkenlos
Do, 21.06. 7:30 18.9° C wolkenlos
Do, 21.06. 7:00 18.0° C wolkenlos
Ortszeit Relative Feuchte Sichtweite
Do, 21.06. 8:00 74% 30 km
Do, 21.06. 2:00 78% 45 km
Mi, 20.06. 20:00 42% 60 km
Mi, 20.06. 14:00 49% 40 km
Mi, 20.06. 8:00 76% 30 km
Mi, 20.06. 2:00 85% 35 km
Di, 19.06. 20:00 65% 55 km
Di, 19.06. 14:00 63% 60 km
Ortszeit Relative Feuchte Sichtweite
Do, 21.06. 10:00 53% 40 km
Do, 21.06. 9:50 53% -
Do, 21.06. 9:40 58% -
Do, 21.06. 9:30 61% 35 km
Do, 21.06. 9:20 61% -
Do, 21.06. 9:10 62% -
Do, 21.06. 9:00 62% 25 km
Do, 21.06. 8:30 71% 30 km
Do, 21.06. 8:00 74% 30 km
Do, 21.06. 7:30 76% 30 km
Do, 21.06. 7:00 80% 28 km
Ortszeit Niederschlagsmenge Niederschlagsart
Do, 21.06. 8:00 0.0 l/m2 in 12 Std. -
Do, 21.06. 2:00 0.0 l/m2 in 6 Std. -
Mi, 20.06. 20:00 0.0 l/m2 in 12 Std. -
Mi, 20.06. 14:00 0.0 l/m2 in 6 Std. -
Mi, 20.06. 8:00 0.0 l/m2 in 12 Std. -
Mi, 20.06. 2:00 0.0 l/m2 in 6 Std. -
Di, 19.06. 20:00 0.0 l/m2 in 12 Std. -
Di, 19.06. 14:00 0.0 l/m2 in 6 Std. -
Ortszeit Niederschlagsmenge Niederschlagsart
Do, 21.06. 10:00 0.0 l/m2 in 1 Std. -
Do, 21.06. 9:50 keine Meldung -
Do, 21.06. 9:40 keine Meldung -
Do, 21.06. 9:30 0.0 l/m2 in 1 Std. -
Do, 21.06. 9:20 keine Meldung -
Do, 21.06. 9:10 keine Meldung -
Do, 21.06. 9:00 0.0 l/m2 in 1 Std. -
Do, 21.06. 8:30 0.0 l/m2 in 1 Std. -
Do, 21.06. 8:00 0.0 l/m2 in 1 Std. -
Do, 21.06. 7:30 0.0 l/m2 in 1 Std. -
Do, 21.06. 7:00 0.0 l/m2 in 1 Std. -
Ortszeit Stärke Spitze Richtung
km/h Bft. km/h Grad Sektor
Do, 21.06. 8:00 7 2 14 230° SW
Do, 21.06. 2:00 9 2 17 310° NW
Mi, 20.06. 20:00 7 2 19 300° NW
Mi, 20.06. 14:00 7 2 14 180° S
Mi, 20.06. 8:00 4 1 7 110° O
Mi, 20.06. 2:00 6 1 13 330° NW
Di, 19.06. 20:00 4 1 18 320° NW
Di, 19.06. 14:00 7 2 25 220° SW
Ortszeit Stärke Spitze Richtung
km/h Bft. km/h Grad Sektor
Do, 21.06. 10:00 13 3 30 290° W
Do, 21.06. 9:50 13 3 - 290° W
Do, 21.06. 9:40 17 3 - 280° W
Do, 21.06. 9:30 15 3 30 290° W
Do, 21.06. 9:20 15 3 - 290° W
Do, 21.06. 9:10 14 3 - 280° W
Do, 21.06. 9:00 9 2 20 260° W
Do, 21.06. 8:30 4 1 7 210° SW
Do, 21.06. 8:00 7 2 14 230° SW
Do, 21.06. 7:30 7 2 13 250° W
Do, 21.06. 7:00 4 1 14 230° SW
Ortszeit Untergrenze Bedeckung Gattung
total tief tief mittel hoch
Do, 21.06. 8:00 10500 m 0/8 0/8 - - -
Do, 21.06. 2:00 - 0/8 0/8 - - -
Mi, 20.06. 20:00 - 0/8 0/8 - - -
Mi, 20.06. 14:00 - 0/8 0/8 - - -
Mi, 20.06. 8:00 1290 m 7/8 7/8 - - -
Mi, 20.06. 2:00 1350 m 8/8 8/8 - - -
Di, 19.06. 20:00 1500 m 3/8 3/8 - - -
Di, 19.06. 14:00 1200 m 8/8 8/8 - - -
Ortszeit Bedeckungsgrad in Achtel und Wolkenuntergrenze
Do, 21.06. 10:00 6(8700m) 7(9000m) 7(12000m)
Do, 21.06. 9:50 6(8700m) 7(9000m) 7(12000m)
Do, 21.06. 9:40 5(9000m) 6(9000m) 7(12000m)
Do, 21.06. 9:30 7(9000m) 8(12000m)
Do, 21.06. 9:20 7(9000m) 8(12000m)
Do, 21.06. 9:10 7(9000m) 8(9000m) 8(12000m)
Do, 21.06. 9:00 7(9000m) 7(9000m)
Do, 21.06. 8:30 6(9000m)
Do, 21.06. 8:00 3(10500m)
Do, 21.06. 7:30 keine Wolken
Do, 21.06. 7:00 keine Wolken
Ortszeit Luftdruck NN (hPa) Tendenz (hPa in 3 Std.)
Do, 21.06. 8:00 1016 - 0,2
Do, 21.06. 2:00 1017 - 0,6
Mi, 20.06. 20:00 1017 - 1,5
Mi, 20.06. 14:00 1021 - 1,5
Mi, 20.06. 8:00 1023 - 0,3
Mi, 20.06. 2:00 1024 + 0,2
Di, 19.06. 20:00 1023 - 0,5
Di, 19.06. 14:00 1024 0,0
Ortszeit Luftdruck NN (hPa) Tendenz (hPa in 3 Std.)
Do, 21.06. 10:00 1015 - 0,3
Do, 21.06. 9:50 1015 keine Meldung
Do, 21.06. 9:40 1015 keine Meldung
Do, 21.06. 9:30 1015 - 0,5
Do, 21.06. 9:20 1015 keine Meldung
Do, 21.06. 9:10 1015 keine Meldung
Do, 21.06. 9:00 1015 - 0,1
Do, 21.06. 8:30 1016 0,0
Do, 21.06. 8:00 1016 - 0,2
Do, 21.06. 7:30 1016 - 0,4
Do, 21.06. 7:00 1016 - 0,7
Ortszeit Schneehöhe (cm)
Do, 21.06. 8:00 -
Do, 21.06. 2:00 -
Mi, 20.06. 20:00 -
Mi, 20.06. 14:00 -
Mi, 20.06. 8:00 -
Mi, 20.06. 2:00 -
Di, 19.06. 20:00 -
Di, 19.06. 14:00 -
Ortszeit Schneehöhe (cm)
Do, 21.06. 10:00 -
Do, 21.06. 9:50 -
Do, 21.06. 9:40 -
Do, 21.06. 9:30 -
Do, 21.06. 9:20 -
Do, 21.06. 9:10 -
Do, 21.06. 9:00 -
Do, 21.06. 8:30 -
Do, 21.06. 8:00 -
Do, 21.06. 7:30 -
Do, 21.06. 7:00 -
Link zu dieser Seite / Seite empfehlen

Das Wetter in ...